Terminal Aerodrome Forecast
Issued by NWS

Current Version | Previous Version | Text Only | Print | Product List | Glossary On
Versions: 1 2 3 4 5 6 7 8 9 10 11 12 13 14 15
000
FTPA31 PHFO 250532
TAFHNY
TAF
PHNY 250532Z 2506/2606 04011KT P6SM FEW015
     FM250800 VRB04KT P6SM VCSH SCT015 BKN035
      TEMPO 2510/2514 SCT008 BKN012
     FM251900 25008KT P6SM VCSH BKN020 OVC035
     FM260200 VRB05KT P6SM VCSH FEW010 SCT020 BKN035=

USA.gov is the U.S. government's official web portal to all federal, state and local government web resources and services.